Time;durP1;ratioP1;P1;durP2;ratioP2;P2;SDS_P1;SDS_P2;PMS_P1;PMS_P2;Temp;Humidity;BMP_temperature;BMP_pressure;BME280_temperature;BME280_humidity;BME280_pressure;Samples;Min_cycle;Max_cycle;Signal;HPM_P1;HPM_P2
2022/01/20 00:08:05;;;;;;;13.97;6.33;;;;;;;-8.16;89.88;100888.06;31048913;28;20080;-84
2022/01/20 00:23:17;;;;;;;9.10;5.60;;;;;;;-8.09;89.63;100857.72;31095620;28;20065;-83
2022/01/20 00:38:20;;;;;;;8.33;5.57;;;;;;;-8.12;89.57;100850.34;31043097;28;20141;-84
2022/01/20 00:53:22;;;;;;;4.63;3.83;;;;;;;-8.47;88.99;100851.41;31072635;28;20049;-83
2022/01/20 01:08:24;;;;;;;10.23;4.77;;;;;;;-8.37;90.57;100845.28;31077858;28;20149;-83
2022/01/20 01:23:39;;;;;;;11.90;6.20;;;;;;;-8.24;89.03;100839.38;31090155;28;20069;-83
2022/01/20 01:38:42;;;;;;;16.93;7.57;;;;;;;-8.12;89.08;100831.91;31045643;28;20069;-82
2022/01/20 01:53:44;;;;;;;10.73;4.47;;;;;;;-8.17;89.32;100805.59;31096410;28;20141;-84
2022/01/20 02:09:18;;;;;;;8.40;5.40;;;;;;;-8.16;89.72;100785.31;31097633;28;20050;-82
2022/01/20 02:24:11;;;;;;;7.60;4.97;;;;;;;-8.04;90.16;100802.34;31134125;28;20046;-82
2022/01/20 02:54:27;;;;;;;7.83;4.47;;;;;;;-8.16;90.79;100806.38;31106434;28;20046;-83
2022/01/20 03:09:29;;;;;;;7.07;5.87;;;;;;;-7.96;90.53;100783.28;31055180;28;20042;-83
2022/01/20 03:24:31;;;;;;;14.10;7.57;;;;;;;-7.86;91.12;100781.63;31097530;28;20053;-83
2022/01/20 03:39:34;;;;;;;20.03;9.77;;;;;;;-7.74;91.10;100768.81;31085996;28;20468;-84
2022/01/20 03:54:35;;;;;;;13.90;8.73;;;;;;;-7.49;91.29;100754.56;31081185;28;20046;-84
2022/01/20 04:09:38;;;;;;;5.13;4.07;;;;;;;-7.75;92.08;100754.06;31085821;28;20107;-85
2022/01/20 04:24:40;;;;;;;15.37;8.20;;;;;;;-7.88;93.19;100754.75;31125366;28;20565;-82
2022/01/20 04:39:46;;;;;;;27.57;16.67;;;;;;;-7.82;95.22;100766.81;31110296;28;20053;-83
2022/01/20 05:10:13;;;;;;;26.63;11.33;;;;;;;-7.81;96.80;100768.41;31107479;28;20141;-85
2022/01/20 05:25:15;;;;;;;35.17;18.87;;;;;;;-8.04;98.91;100786.53;31100459;28;20069;-84
2022/01/20 05:40:17;;;;;;;20.63;11.27;;;;;;;-7.81;100.00;100786.84;31088599;28;20058;-84
2022/01/20 05:55:21;;;;;;;19.07;9.10;;;;;;;-7.70;100.00;100797.00;31075118;28;20072;-83
2022/01/20 06:10:23;;;;;;;21.23;9.93;;;;;;;-6.41;100.00;100776.59;31087454;28;20057;-84
2022/01/20 06:25:25;;;;;;;63.30;25.80;;;;;;;-4.30;92.14;100761.22;31131211;28;20124;-83
2022/01/20 06:40:27;;;;;;;30.47;13.83;;;;;;;-1.98;74.85;100766.13;31115340;28;20082;-81
2022/01/20 06:55:29;;;;;;;25.93;12.73;;;;;;;-1.39;75.87;100731.56;31164860;28;20403;-83
2022/01/20 07:10:31;;;;;;;37.47;21.53;;;;;;;-4.19;86.19;100715.56;31087492;28;20058;-87
2022/01/20 07:25:38;;;;;;;49.57;21.43;;;;;;;-4.98;88.31;100706.66;31083850;28;20038;-85
2022/01/20 07:40:41;;;;;;;42.67;22.03;;;;;;;-4.98;89.34;100677.53;31158938;28;20175;-85
2022/01/20 07:55:45;;;;;;;28.93;14.93;;;;;;;-4.73;89.97;100700.75;31177172;28;20114;-84
2022/01/20 08:10:47;;;;;;;37.67;17.80;;;;;;;-4.69;90.16;100696.41;31167509;28;20050;-84
2022/01/20 08:25:49;;;;;;;21.17;11.57;;;;;;;-4.49;93.23;100698.56;31145007;28;20073;-84
2022/01/20 08:40:52;;;;;;;13.70;6.57;;;;;;;-4.55;92.90;100713.03;31120269;28;20058;-84
2022/01/20 08:55:54;;;;;;;8.80;5.27;;;;;;;-4.85;96.34;100689.91;31086116;28;20137;-84
2022/01/20 09:10:56;;;;;;;9.07;5.97;;;;;;;-4.76;97.99;100661.63;31075138;28;20603;-83
2022/01/20 09:25:59;;;;;;;3.67;2.53;;;;;;;-4.37;98.35;100638.91;31110940;28;20062;-84
2022/01/20 09:41:03;;;;;;;6.80;4.47;;;;;;;-3.71;96.70;100634.44;31098175;28;20093;-83
2022/01/20 09:56:06;;;;;;;11.70;6.63;;;;;;;-3.19;96.28;100608.72;31075767;28;20051;-84
2022/01/20 10:11:11;;;;;;;;;;;;;;;-1.81;90.90;100561.13;31061338;28;20054;-84
2022/01/20 10:26:16;;;;;;;8.57;4.53;;;;;;;-2.01;92.01;100545.94;31102179;28;19963;-84
2022/01/20 10:41:56;;;;;;;12.20;5.97;;;;;;;-1.92;90.57;100533.38;31093176;28;20569;-84
2022/01/20 10:56:58;;;;;;;7.23;4.50;;;;;;;-0.66;88.07;100502.69;31130605;28;20065;-84
2022/01/20 11:12:02;;;;;;;9.23;4.87;;;;;;;1.77;75.58;100471.41;31113149;28;20141;-83
2022/01/20 11:27:06;;;;;;;9.83;4.43;;;;;;;2.62;67.06;100448.19;31119859;28;20551;-85
2022/01/20 11:42:19;;;;;;;10.60;4.07;;;;;;;3.14;61.30;100441.41;31091322;28;20062;-85
2022/01/20 11:57:30;;;;;;;8.47;4.07;;;;;;;3.25;72.03;100410.16;31081791;28;20100;-84
2022/01/20 12:12:34;;;;;;;12.60;5.10;;;;;;;3.20;74.02;100386.31;31075316;28;20576;-84
2022/01/20 12:27:36;;;;;;;7.63;4.03;;;;;;;3.64;70.94;100384.63;31112824;28;20054;-84
2022/01/20 12:42:41;;;;;;;7.20;4.10;;;;;;;3.04;61.13;100368.47;31122607;28;20064;-85
2022/01/20 12:57:45;;;;;;;15.13;5.97;;;;;;;0.39;76.24;100358.53;31079045;28;20062;-85
2022/01/20 13:12:47;;;;;;;13.33;5.53;;;;;;;-1.34;85.48;100355.84;31111146;28;20467;-85
2022/01/20 13:27:50;;;;;;;12.87;5.13;;;;;;;-1.95;88.54;100358.41;31123058;28;20143;-84
2022/01/20 13:58:33;;;;;;;11.47;4.67;;;;;;;-2.34;92.34;100287.09;31079954;28;20586;-83
2022/01/20 14:13:35;;;;;;;11.40;5.33;;;;;;;-2.50;94.14;100271.75;31138801;28;20085;-83
2022/01/20 14:28:37;;;;;;;9.30;3.80;;;;;;;-2.58;95.78;100264.63;31070022;28;20061;-84
2022/01/20 14:43:39;;;;;;;7.57;3.50;;;;;;;-2.53;96.29;100248.47;31097297;28;20136;-84
2022/01/20 14:58:42;;;;;;;11.27;5.47;;;;;;;-2.37;97.90;100256.63;31106585;28;20481;-83
2022/01/20 15:13:44;;;;;;;9.33;5.00;;;;;;;-2.26;99.09;100230.41;31100611;28;20136;-86
2022/01/20 15:28:48;;;;;;;7.47;4.00;;;;;;;-2.19;99.38;100225.31;31084550;28;20078;-84
2022/01/20 15:43:50;;;;;;;9.80;4.67;;;;;;;-2.31;98.87;100209.31;31097718;28;20459;-83
2022/01/20 15:58:52;;;;;;;9.80;4.87;;;;;;;-2.22;98.21;100180.75;31069461;28;20050;-83
2022/01/20 16:13:57;;;;;;;9.20;5.13;;;;;;;-2.19;97.54;100199.50;31120841;28;20137;-85
2022/01/20 16:29:03;;;;;;;11.97;4.83;;;;;;;-2.21;98.08;100190.31;31107295;28;20082;-85
2022/01/20 16:44:05;;;;;;;13.37;4.33;;;;;;;-2.32;99.29;100157.25;31130617;28;20112;-85
2022/01/20 16:59:08;;;;;;;7.83;4.57;;;;;;;-2.41;100.00;100133.44;31086481;28;20068;-84
2022/01/20 17:14:10;;;;;;;3.00;2.43;;;;;;;-2.33;100.00;100129.09;31104840;28;20138;-83
2022/01/20 17:29:12;;;;;;;14.83;3.57;;;;;;;-2.32;100.00;100098.75;31130421;28;20104;-85
2022/01/20 17:44:14;;;;;;;5.30;2.73;;;;;;;-2.35;99.98;100062.19;31085627;28;20053;-85
2022/01/20 17:59:23;;;;;;;13.87;3.93;;;;;;;-2.27;100.00;100032.84;31114720;28;20038;-85
2022/01/20 18:14:25;;;;;;;2.97;2.67;;;;;;;-2.18;100.00;100027.41;31073362;28;20065;-85
2022/01/20 18:29:47;;;;;;;4.53;2.70;;;;;;;-2.06;100.00;100022.84;31098872;28;20391;-86
2022/01/20 18:44:48;;;;;;;3.47;2.43;;;;;;;-1.96;100.00;100000.31;31080747;28;20113;-86
2022/01/20 18:59:51;;;;;;;2.10;1.90;;;;;;;-1.88;100.00;99980.78;31094372;28;20460;-85
2022/01/20 19:14:53;;;;;;;2.87;2.50;;;;;;;-1.89;100.00;99947.28;31083387;28;20057;-83
2022/01/20 19:29:57;;;;;;;2.97;2.00;;;;;;;-1.80;100.00;99929.31;31124691;28;20053;-86
2022/01/20 19:44:59;;;;;;;6.00;2.60;;;;;;;-1.76;100.00;99908.88;31089299;28;20064;-82
2022/01/20 20:00:05;;;;;;;4.30;2.53;;;;;;;-1.60;100.00;99878.84;31077227;28;20046;-82
2022/01/20 20:15:09;;;;;;;4.33;2.97;;;;;;;-1.36;100.00;99878.72;31064756;28;20529;-81
2022/01/20 20:30:11;;;;;;;6.83;3.70;;;;;;;-1.15;100.00;99863.22;31037858;28;20507;-81
2022/01/20 20:45:13;;;;;;;11.90;4.07;;;;;;;-1.02;100.00;99847.16;31068065;28;20088;-82
2022/01/20 21:00:17;;;;;;;4.37;3.30;;;;;;;-0.95;100.00;99796.69;31074706;28;20085;-83
2022/01/20 21:15:19;;;;;;;11.63;3.47;;;;;;;-0.91;100.00;99771.66;31104338;28;20058;-82
2022/01/20 21:30:21;;;;;;;9.43;5.37;;;;;;;-0.74;100.00;99786.50;31135675;28;20046;-83
2022/01/20 21:45:23;;;;;;;10.27;3.97;;;;;;;-0.56;100.00;99738.84;31082519;28;20072;-86
2022/01/20 22:00:48;;;;;;;8.03;4.00;;;;;;;-0.49;100.00;99697.09;31099917;28;20121;-89
2022/01/20 22:15:53;;;;;;;8.87;3.77;;;;;;;-0.38;100.00;99676.72;31100181;28;20054;-92
2022/01/20 22:30:57;;;;;;;;;;;;;;;-0.28;100.00;99658.59;31145169;28;20111;-83
2022/01/20 22:45:59;;;;;;;1.97;1.80;;;;;;;-0.19;100.00;99645.75;31092511;28;19929;-87
2022/01/20 23:01:05;;;;;;;8.40;3.73;;;;;;;-0.10;100.00;99630.28;31144654;28;20089;-88
2022/01/20 23:16:33;;;;;;;4.77;3.37;;;;;;;-0.03;100.00;99623.19;31119758;28;20050;-86
2022/01/20 23:31:36;;;;;;;5.83;3.23;;;;;;;-0.02;100.00;99623.94;31100525;28;20064;-88
